• Join FlightAware (Why Join?)
  • Login
  • US Flag 
12:25PM EDT


 

Airport Tracker/Info


-or-


 

Live Flight TrackerFlight Track Log ✈ EJA365 ✈ 13-Apr-2013 ✈ KCRW - KAGS

Flight Track Log - Related Links

Times and Time Zones

All times are in EDT time to prevent confusion due to time zone crossing. See the EJA365 flight status page for this flight to view local times or setup timezone preferences in your user account.

Time Position Orientation Groundspeed Altitude Reporting Facility
EDT Latitude Longitude Course Direction KTS MPH feet Rate Location/Type
07:21AM 38.2922 -81.6050 148° Southeast 249 287 5,600  Level Indianapolis Center
07:22AM 38.2236 -81.5514 148° Southeast 285 328 8,700 2,160 Climbing Indianapolis Center
07:23AM 38.1406 -81.4894 150° Southeast 341 392 10,000 1,740 Climbing Indianapolis Center
07:24AM 38.0478 -81.4583 165° South 355 409 12,300 2,580 Climbing Indianapolis Center
07:25AM 38.0083 -81.5464 240° Southwest 304 350 15,300 2,940 Climbing Indianapolis Center
07:26AM 37.9789 -81.6450 249° West 298 343 18,300 2,940 Climbing Indianapolis Center
07:27AM 37.9492 -81.7494 250° West 311 358 21,300 2,940 Climbing Indianapolis Center
07:28AM 37.9206 -81.8542 251° West 313 360 24,300 2,820 Climbing Indianapolis Center
07:29AM 37.8922 -81.9542 250° West 304 350 27,100 2,160 Climbing Indianapolis Center
07:30AM 37.8356 -82.0461 232° Southwest 319 367 28,700 1,440 Climbing Indianapolis Center
07:31AM 37.7769 -82.1372 231° Southwest 331 381 30,100 1,440 Climbing Indianapolis Center
07:32AM 37.6839 -82.1675 194° South 370 426 31,700 1,380 Climbing Indianapolis Center
07:33AM 37.5769 -82.1644 179° South 381 438 33,000 600 Climbing Indianapolis Center
07:34AM 37.4686 -82.1714 183° South 386 444 33,000  Level Indianapolis Center
07:35AM 37.3419 -82.1758 182° South 388 447 33,000  Level Indianapolis Center
07:36AM 37.2786 -82.1817 184° South 392 451 33,000  Level Atlanta Center
07:37AM 37.1828 -82.1867 182° South 372 428 33,000  Level Atlanta Center
07:38AM 37.0767 -82.1892 181° South 372 428 33,000  Level Atlanta Center
07:39AM 36.9703 -82.1942 182° South 385 443 33,000 -480 Level Atlanta Center
07:40AM 36.8578 -82.2019 183° South 392 451 32,100 -960 Descending Atlanta Center
07:41AM 36.7328 -82.2075 182° South 404 465 31,100 -1,020 Descending Atlanta Center
07:42AM 36.6183 -82.2128 182° South 404 465 30,100 -1,080 Descending Atlanta Center
07:43AM 36.5078 -82.2178 182° South 404 465 29,000 -1,320 Descending Atlanta Center
07:44AM 36.3972 -82.2228 182° South 398 458 27,500 -1,500 Descending Atlanta Center
07:45AM 36.2828 -82.2281 182° South 408 470 26,000 -1,500 Descending Atlanta Center
07:46AM 36.1722 -82.2358 183° South 408 470 24,500 -1,500 Descending Atlanta Center
07:47AM 36.0617 -82.2381 181° South 398 458 23,000 -1,500 Descending Atlanta Center
07:48AM 35.9514 -82.2458 183° South 398 458 21,500 -1,500 Descending Atlanta Center
07:49AM 35.8450 -82.2506 182° South 398 458 20,100 -780 Descending Atlanta Center
07:50AM 35.7408 -82.2556 182° South 390 449 20,000 -60 Descending Atlanta Center
07:51AM 35.6386 -82.2603 182° South 371 427 20,000  Level Atlanta Center
07:52AM 35.5364 -82.2675 183° South 371 427 20,000  Level Atlanta Center
07:53AM 35.4342 -82.2697 181° South 366 421 20,000  Level Atlanta Center
07:54AM 35.3300 -82.2644 178° South 366 421 20,000  Level Atlanta Center
07:55AM 35.2256 -82.2539 175° South 371 427 20,000  Level Atlanta Center
07:56AM 35.1208 -82.2433 175° South 371 427 20,000  Level Atlanta Center
07:57AM 35.0186 -82.2331 175° South 371 427 20,000  Level Atlanta Center
07:58AM 34.9267 -82.2250 176° South 371 427 20,000  Level Atlanta Center
07:59AM 34.8117 -82.2122 175° South 371 427 20,000 -120 Level Atlanta Center
08:00AM 34.7092 -82.2019 175° South 371 427 19,800 -1,800 Descending Atlanta Center
08:01AM 34.6111 -82.1914 175° South 365 420 16,500 -3,060 Descending Atlanta Center
08:02AM 34.5147 -82.1808 175° South 365 420 13,700 -1,800 Descending Atlanta Center
08:03AM 34.4292 -82.1753 177° South 348 400 13,000 -360 Descending Atlanta Center
08:04AM 34.3475 -82.1644 174° South 317 365 13,000  Level Atlanta Center
08:05AM 34.2661 -82.1561 175° South 304 350 13,000  Level Atlanta Center
08:06AM 34.1825 -82.1556 180° South 304 350 13,000  Level Atlanta Center
08:07AM 34.0908 -82.1575 181° South 310 357 13,000 -60 Level Atlanta Center
08:08AM 34.0011 -82.1594 181° South 320 368 12,900 -600 Descending Atlanta Center
08:09AM 33.9050 -82.1592 180° South 333 383 11,900 -1,020 Descending Atlanta Center
08:10AM 33.8069 -82.1614 181° South 345 397 10,900 -960 Descending Atlanta Center
08:11AM 33.7089 -82.1633 181° South 350 403 10,000 -480 Descending Atlanta Center
08:12AM 33.6125 -82.1356 167° South 350 403 10,000 -660 Level Atlanta Center
08:13AM 33.5222 -82.1078 166° South 350 403 8,700 -1,740 Descending Atlanta Center
08:14AM 33.4428 -82.0844 166° South 328 377 6,600 -2,100 Descending Atlanta Center
08:16AM 33.3699 -81.9645 148° Southeast  Level Estimated
08:23AM 33.3699 -81.9645 148° Southeast  Level Estimated
08:24AM 33.3699 -81.9645 148° Southeast  Level Estimated
08:25AM 33.3699 -81.9645 148° Southeast  Level Estimated
08:26AM 33.3699 -81.9645 148° Southeast  Level Estimated